sensor_id;sensor_type;location;lat;lon;timestamp;temperature;humidity
38514;DHT22;24282;48.400;10.808;2022-11-15T00:01:19;4.50;85.00
38514;DHT22;24282;48.400;10.808;2022-11-15T00:04:04;4.50;84.90
38514;DHT22;24282;48.400;10.808;2022-11-15T00:06:48;4.50;85.10
38514;DHT22;24282;48.400;10.808;2022-11-15T00:09:32;4.40;85.30
38514;DHT22;24282;48.400;10.808;2022-11-15T00:12:16;4.40;85.30
38514;DHT22;24282;48.400;10.808;2022-11-15T00:15:00;4.40;85.60
38514;DHT22;24282;48.400;10.808;2022-11-15T00:17:44;4.40;85.60
38514;DHT22;24282;48.400;10.808;2022-11-15T00:20:35;4.40;85.60
38514;DHT22;24282;48.400;10.808;2022-11-15T00:23:19;4.40;85.60
38514;DHT22;24282;48.400;10.808;2022-11-15T00:26:04;4.40;85.60
38514;DHT22;24282;48.400;10.808;2022-11-15T00:28:48;4.30;85.50
38514;DHT22;24282;48.400;10.808;2022-11-15T00:31:33;4.30;85.40
38514;DHT22;24282;48.400;10.808;2022-11-15T00:34:17;4.30;85.40
38514;DHT22;24282;48.400;10.808;2022-11-15T00:37:01;4.30;85.40
38514;DHT22;24282;48.400;10.808;2022-11-15T00:39:45;4.30;85.50
38514;DHT22;24282;48.400;10.808;2022-11-15T00:42:29;4.30;85.40
38514;DHT22;24282;48.400;10.808;2022-11-15T00:45:13;4.30;85.30
38514;DHT22;24282;48.400;10.808;2022-11-15T00:47:57;4.20;85.30
38514;DHT22;24282;48.400;10.808;2022-11-15T00:50:41;4.20;85.50
38514;DHT22;24282;48.400;10.808;2022-11-15T00:53:26;4.20;85.50
38514;DHT22;24282;48.400;10.808;2022-11-15T00:56:10;4.20;85.60
38514;DHT22;24282;48.400;10.808;2022-11-15T00:58:54;4.20;85.60
38514;DHT22;24282;48.400;10.808;2022-11-15T01:01:38;4.20;85.70
38514;DHT22;24282;48.400;10.808;2022-11-15T01:04:22;4.20;85.70
38514;DHT22;24282;48.400;10.808;2022-11-15T01:07:06;4.20;85.80
38514;DHT22;24282;48.400;10.808;2022-11-15T01:09:50;4.20;85.70
38514;DHT22;24282;48.400;10.808;2022-11-15T01:12:34;4.20;85.60
38514;DHT22;24282;48.400;10.808;2022-11-15T01:15:18;4.10;85.50
38514;DHT22;24282;48.400;10.808;2022-11-15T01:18:02;4.20;85.60
38514;DHT22;24282;48.400;10.808;2022-11-15T01:20:47;4.20;85.60
38514;DHT22;24282;48.400;10.808;2022-11-15T01:23:31;4.20;85.80
38514;DHT22;24282;48.400;10.808;2022-11-15T01:26:18;4.20;86.10
38514;DHT22;24282;48.400;10.808;2022-11-15T01:29:03;4.20;86.10
38514;DHT22;24282;48.400;10.808;2022-11-15T01:31:47;4.20;86.20
38514;DHT22;24282;48.400;10.808;2022-11-15T01:34:31;4.20;86.20
38514;DHT22;24282;48.400;10.808;2022-11-15T01:37:15;4.20;86.00
38514;DHT22;24282;48.400;10.808;2022-11-15T01:39:59;4.20;85.80
38514;DHT22;24282;48.400;10.808;2022-11-15T01:42:44;4.10;85.70
38514;DHT22;24282;48.400;10.808;2022-11-15T01:45:28;4.10;85.50
38514;DHT22;24282;48.400;10.808;2022-11-15T01:48:12;4.00;85.30
38514;DHT22;24282;48.400;10.808;2022-11-15T01:50:57;4.00;85.40
38514;DHT22;24282;48.400;10.808;2022-11-15T01:53:44;4.00;85.40
38514;DHT22;24282;48.400;10.808;2022-11-15T01:56:32;4.00;85.30
38514;DHT22;24282;48.400;10.808;2022-11-15T01:59:18;3.90;85.30
38514;DHT22;24282;48.400;10.808;2022-11-15T02:02:03;3.90;85.50
38514;DHT22;24282;48.400;10.808;2022-11-15T02:04:47;3.90;85.60
38514;DHT22;24282;48.400;10.808;2022-11-15T02:07:33;3.90;85.40
38514;DHT22;24282;48.400;10.808;2022-11-15T02:10:20;3.80;85.50
38514;DHT22;24282;48.400;10.808;2022-11-15T02:13:08;3.80;85.30
38514;DHT22;24282;48.400;10.808;2022-11-15T02:28:28;3.80;85.80
38514;DHT22;24282;48.400;10.808;2022-11-15T02:31:23;3.80;85.90
38514;DHT22;24282;48.400;10.808;2022-11-15T02:34:26;3.80;85.90
38514;DHT22;24282;48.400;10.808;2022-11-15T02:40:11;3.80;85.00
38514;DHT22;24282;48.400;10.808;2022-11-15T02:43:02;3.70;84.60
38514;DHT22;24282;48.400;10.808;2022-11-15T02:49:37;3.60;84.70
38514;DHT22;24282;48.400;10.808;2022-11-15T02:52:23;3.60;85.00
38514;DHT22;24282;48.400;10.808;2022-11-15T03:07:18;3.60;86.10
38514;DHT22;24282;48.400;10.808;2022-11-15T03:10:25;3.60;86.00
38514;DHT22;24282;48.400;10.808;2022-11-15T03:13:19;3.60;86.00
38514;DHT22;24282;48.400;10.808;2022-11-15T03:16:10;3.50;85.70
38514;DHT22;24282;48.400;10.808;2022-11-15T03:19:08;3.50;85.40
38514;DHT22;24282;48.400;10.808;2022-11-15T03:21:56;3.50;85.40
38514;DHT22;24282;48.400;10.808;2022-11-15T03:24:43;3.50;85.10
38514;DHT22;24282;48.400;10.808;2022-11-15T03:27:40;3.50;84.90
38514;DHT22;24282;48.400;10.808;2022-11-15T03:30:31;3.50;84.70
38514;DHT22;24282;48.400;10.808;2022-11-15T03:33:18;3.40;84.60
38514;DHT22;24282;48.400;10.808;2022-11-15T03:36:03;3.40;84.50
38514;DHT22;24282;48.400;10.808;2022-11-15T03:38:48;3.40;84.40
38514;DHT22;24282;48.400;10.808;2022-11-15T03:41:41;3.30;84.40
38514;DHT22;24282;48.400;10.808;2022-11-15T03:44:31;3.30;84.40
38514;DHT22;24282;48.400;10.808;2022-11-15T03:47:41;3.20;84.60
38514;DHT22;24282;48.400;10.808;2022-11-15T03:50:28;3.20;84.60
38514;DHT22;24282;48.400;10.808;2022-11-15T03:53:13;3.20;84.70
38514;DHT22;24282;48.400;10.808;2022-11-15T03:55:58;3.20;84.60
38514;DHT22;24282;48.400;10.808;2022-11-15T03:58:42;3.20;84.30
38514;DHT22;24282;48.400;10.808;2022-11-15T04:01:26;3.20;84.10
38514;DHT22;24282;48.400;10.808;2022-11-15T04:04:10;3.20;83.80
38514;DHT22;24282;48.400;10.808;2022-11-15T04:06:54;3.10;83.80
38514;DHT22;24282;48.400;10.808;2022-11-15T04:09:38;3.10;84.00
38514;DHT22;24282;48.400;10.808;2022-11-15T04:12:44;3.00;84.30
38514;DHT22;24282;48.400;10.808;2022-11-15T04:15:30;3.00;84.40
38514;DHT22;24282;48.400;10.808;2022-11-15T04:18:14;3.00;84.60
38514;DHT22;24282;48.400;10.808;2022-11-15T04:20:58;3.00;84.70
38514;DHT22;24282;48.400;10.808;2022-11-15T04:24:01;3.00;84.90
38514;DHT22;24282;48.400;10.808;2022-11-15T04:26:57;3.00;85.00
38514;DHT22;24282;48.400;10.808;2022-11-15T04:29:42;3.00;85.20
38514;DHT22;24282;48.400;10.808;2022-11-15T04:32:26;3.00;85.30
38514;DHT22;24282;48.400;10.808;2022-11-15T04:35:10;3.00;85.60
38514;DHT22;24282;48.400;10.808;2022-11-15T04:37:56;3.10;85.60
38514;DHT22;24282;48.400;10.808;2022-11-15T04:40:40;3.10;85.60
38514;DHT22;24282;48.400;10.808;2022-11-15T04:43:25;3.10;85.60
38514;DHT22;24282;48.400;10.808;2022-11-15T04:46:09;3.10;85.50
38514;DHT22;24282;48.400;10.808;2022-11-15T04:48:54;3.10;85.20
38514;DHT22;24282;48.400;10.808;2022-11-15T04:51:39;3.10;84.40
38514;DHT22;24282;48.400;10.808;2022-11-15T04:54:23;3.00;83.90
38514;DHT22;24282;48.400;10.808;2022-11-15T04:57:07;3.00;83.90
38514;DHT22;24282;48.400;10.808;2022-11-15T04:59:51;3.00;83.90
38514;DHT22;24282;48.400;10.808;2022-11-15T05:02:35;3.00;83.90
38514;DHT22;24282;48.400;10.808;2022-11-15T05:05:38;2.90;83.90
38514;DHT22;24282;48.400;10.808;2022-11-15T05:08:22;2.80;84.10
38514;DHT22;24282;48.400;10.808;2022-11-15T05:11:06;2.80;84.50
38514;DHT22;24282;48.400;10.808;2022-11-15T05:13:51;2.80;84.80
38514;DHT22;24282;48.400;10.808;2022-11-15T05:16:35;2.80;84.90
38514;DHT22;24282;48.400;10.808;2022-11-15T05:19:20;2.80;85.00
38514;DHT22;24282;48.400;10.808;2022-11-15T05:22:04;2.80;85.00
38514;DHT22;24282;48.400;10.808;2022-11-15T05:24:48;2.80;85.00
38514;DHT22;24282;48.400;10.808;2022-11-15T05:27:33;2.80;84.80
38514;DHT22;24282;48.400;10.808;2022-11-15T05:30:17;2.80;84.70
38514;DHT22;24282;48.400;10.808;2022-11-15T05:33:02;2.80;84.60
38514;DHT22;24282;48.400;10.808;2022-11-15T05:35:52;2.70;84.40
38514;DHT22;24282;48.400;10.808;2022-11-15T05:38:38;2.70;84.50
38514;DHT22;24282;48.400;10.808;2022-11-15T05:41:39;2.70;84.60
38514;DHT22;24282;48.400;10.808;2022-11-15T05:44:24;2.70;84.60
38514;DHT22;24282;48.400;10.808;2022-11-15T05:47:13;2.70;84.50
38514;DHT22;24282;48.400;10.808;2022-11-15T05:49:59;2.70;84.30
38514;DHT22;24282;48.400;10.808;2022-11-15T05:52:44;2.60;84.40
38514;DHT22;24282;48.400;10.808;2022-11-15T05:55:29;2.60;84.50
38514;DHT22;24282;48.400;10.808;2022-11-15T05:58:13;2.60;84.30
38514;DHT22;24282;48.400;10.808;2022-11-15T06:00:57;2.60;84.40
38514;DHT22;24282;48.400;10.808;2022-11-15T06:03:42;2.60;84.40
38514;DHT22;24282;48.400;10.808;2022-11-15T06:06:27;2.60;84.00
38514;DHT22;24282;48.400;10.808;2022-11-15T06:09:12;2.50;84.00
38514;DHT22;24282;48.400;10.808;2022-11-15T06:11:56;2.50;84.30
38514;DHT22;24282;48.400;10.808;2022-11-15T06:14:40;2.50;84.50
38514;DHT22;24282;48.400;10.808;2022-11-15T06:17:24;2.50;84.70
38514;DHT22;24282;48.400;10.808;2022-11-15T06:20:09;2.50;84.60
38514;DHT22;24282;48.400;10.808;2022-11-15T06:23:02;2.50;84.50
38514;DHT22;24282;48.400;10.808;2022-11-15T06:25:47;2.40;84.60
38514;DHT22;24282;48.400;10.808;2022-11-15T06:28:32;2.50;84.60
38514;DHT22;24282;48.400;10.808;2022-11-15T06:31:17;2.40;84.60
38514;DHT22;24282;48.400;10.808;2022-11-15T06:34:01;2.50;84.70
38514;DHT22;24282;48.400;10.808;2022-11-15T06:36:45;2.50;84.60
38514;DHT22;24282;48.400;10.808;2022-11-15T06:39:29;2.40;84.40
38514;DHT22;24282;48.400;10.808;2022-11-15T06:42:13;2.50;84.30
38514;DHT22;24282;48.400;10.808;2022-11-15T06:44:57;2.50;84.30
38514;DHT22;24282;48.400;10.808;2022-11-15T06:47:45;2.40;84.30
38514;DHT22;24282;48.400;10.808;2022-11-15T06:50:30;2.40;84.20
38514;DHT22;24282;48.400;10.808;2022-11-15T06:53:14;2.30;84.30
38514;DHT22;24282;48.400;10.808;2022-11-15T06:56:00;2.40;84.40
38514;DHT22;24282;48.400;10.808;2022-11-15T06:58:44;2.30;84.50
38514;DHT22;24282;48.400;10.808;2022-11-15T07:01:28;2.30;84.60
38514;DHT22;24282;48.400;10.808;2022-11-15T07:04:12;2.40;84.60
38514;DHT22;24282;48.400;10.808;2022-11-15T07:06:56;2.40;84.90
38514;DHT22;24282;48.400;10.808;2022-11-15T07:09:40;2.50;85.00
38514;DHT22;24282;48.400;10.808;2022-11-15T07:12:25;2.50;85.20
38514;DHT22;24282;48.400;10.808;2022-11-15T07:15:09;2.50;85.40
38514;DHT22;24282;48.400;10.808;2022-11-15T07:17:53;2.50;85.50
38514;DHT22;24282;48.400;10.808;2022-11-15T07:20:37;2.60;85.70
38514;DHT22;24282;48.400;10.808;2022-11-15T07:23:23;2.60;85.80
38514;DHT22;24282;48.400;10.808;2022-11-15T07:26:08;2.60;86.10
38514;DHT22;24282;48.400;10.808;2022-11-15T07:28:52;2.70;86.30
38514;DHT22;24282;48.400;10.808;2022-11-15T07:31:36;2.80;86.50
38514;DHT22;24282;48.400;10.808;2022-11-15T07:34:20;2.90;86.90
38514;DHT22;24282;48.400;10.808;2022-11-15T07:37:05;3.00;87.10
38514;DHT22;24282;48.400;10.808;2022-11-15T07:39:49;3.00;87.00
38514;DHT22;24282;48.400;10.808;2022-11-15T07:42:34;3.10;87.20
38514;DHT22;24282;48.400;10.808;2022-11-15T07:45:44;3.20;88.10
38514;DHT22;24282;48.400;10.808;2022-11-15T07:48:29;3.30;88.40
38514;DHT22;24282;48.400;10.808;2022-11-15T07:51:15;3.40;88.50
38514;DHT22;24282;48.400;10.808;2022-11-15T07:54:00;3.40;88.30
38514;DHT22;24282;48.400;10.808;2022-11-15T07:56:44;3.40;88.20
38514;DHT22;24282;48.400;10.808;2022-11-15T07:59:28;3.40;88.00
38514;DHT22;24282;48.400;10.808;2022-11-15T08:02:13;3.50;88.00
38514;DHT22;24282;48.400;10.808;2022-11-15T08:04:57;3.50;88.20
38514;DHT22;24282;48.400;10.808;2022-11-15T08:07:42;3.50;88.30
38514;DHT22;24282;48.400;10.808;2022-11-15T08:10:27;3.60;88.30
38514;DHT22;24282;48.400;10.808;2022-11-15T08:13:12;3.60;88.40
38514;DHT22;24282;48.400;10.808;2022-11-15T08:16:01;3.70;88.50
38514;DHT22;24282;48.400;10.808;2022-11-15T08:18:46;3.90;88.60
38514;DHT22;24282;48.400;10.808;2022-11-15T08:21:30;4.10;88.70
38514;DHT22;24282;48.400;10.808;2022-11-15T08:24:14;4.30;88.30
38514;DHT22;24282;48.400;10.808;2022-11-15T08:26:59;4.50;88.00
38514;DHT22;24282;48.400;10.808;2022-11-15T08:29:44;4.60;87.50
38514;DHT22;24282;48.400;10.808;2022-11-15T08:32:30;4.70;87.20
38514;DHT22;24282;48.400;10.808;2022-11-15T08:35:14;4.80;87.00
38514;DHT22;24282;48.400;10.808;2022-11-15T08:37:58;4.80;86.90
38514;DHT22;24282;48.400;10.808;2022-11-15T08:40:42;4.90;87.00
38514;DHT22;24282;48.400;10.808;2022-11-15T08:43:26;4.90;87.00
38514;DHT22;24282;48.400;10.808;2022-11-15T08:46:12;5.00;87.00
38514;DHT22;24282;48.400;10.808;2022-11-15T08:48:57;5.00;86.90
38514;DHT22;24282;48.400;10.808;2022-11-15T08:51:42;5.10;86.80
38514;DHT22;24282;48.400;10.808;2022-11-15T08:54:26;5.10;86.80
38514;DHT22;24282;48.400;10.808;2022-11-15T08:57:10;5.10;86.90
38514;DHT22;24282;48.400;10.808;2022-11-15T08:59:54;5.20;87.00
38514;DHT22;24282;48.400;10.808;2022-11-15T09:02:39;5.20;87.10
38514;DHT22;24282;48.400;10.808;2022-11-15T09:05:23;5.20;87.10
38514;DHT22;24282;48.400;10.808;2022-11-15T09:08:08;5.30;87.10
38514;DHT22;24282;48.400;10.808;2022-11-15T09:10:52;5.30;87.20
38514;DHT22;24282;48.400;10.808;2022-11-15T09:13:36;5.40;87.30
38514;DHT22;24282;48.400;10.808;2022-11-15T09:16:21;5.40;87.60
38514;DHT22;24282;48.400;10.808;2022-11-15T09:19:05;5.50;87.80
38514;DHT22;24282;48.400;10.808;2022-11-15T09:21:50;5.50;87.80
38514;DHT22;24282;48.400;10.808;2022-11-15T09:24:34;5.50;88.00
38514;DHT22;24282;48.400;10.808;2022-11-15T09:27:19;5.60;88.10
38514;DHT22;24282;48.400;10.808;2022-11-15T09:30:03;5.70;88.00
38514;DHT22;24282;48.400;10.808;2022-11-15T09:32:47;5.80;87.90
38514;DHT22;24282;48.400;10.808;2022-11-15T09:35:31;5.80;87.90
38514;DHT22;24282;48.400;10.808;2022-11-15T09:38:15;5.90;88.00
38514;DHT22;24282;48.400;10.808;2022-11-15T09:44:06;6.00;88.20
38514;DHT22;24282;48.400;10.808;2022-11-15T09:52:55;6.40;87.80
38514;DHT22;24282;48.400;10.808;2022-11-15T09:55:37;6.40;87.80
38514;DHT22;24282;48.400;10.808;2022-11-15T10:01:55;6.50;87.70
38514;DHT22;24282;48.400;10.808;2022-11-15T10:04:01;6.50;87.50
38514;DHT22;24282;48.400;10.808;2022-11-15T10:06:27;6.60;87.30
38514;DHT22;24282;48.400;10.808;2022-11-15T10:09:16;6.70;87.00
38514;DHT22;24282;48.400;10.808;2022-11-15T10:11:43;6.70;86.80
38514;DHT22;24282;48.400;10.808;2022-11-15T10:14:21;6.80;86.70
38514;DHT22;24282;48.400;10.808;2022-11-15T10:24:58;7.00;85.90
38514;DHT22;24282;48.400;10.808;2022-11-15T10:27:25;7.10;86.00
38514;DHT22;24282;48.400;10.808;2022-11-15T10:29:51;7.10;86.00
38514;DHT22;24282;48.400;10.808;2022-11-15T10:32:19;7.20;85.90
38514;DHT22;24282;48.400;10.808;2022-11-15T10:34:47;7.20;85.70
38514;DHT22;24282;48.400;10.808;2022-11-15T10:37:13;7.30;85.30
38514;DHT22;24282;48.400;10.808;2022-11-15T10:39:39;7.40;85.00
38514;DHT22;24282;48.400;10.808;2022-11-15T10:44:43;7.40;84.60
38514;DHT22;24282;48.400;10.808;2022-11-15T10:47:30;7.50;84.70
38514;DHT22;24282;48.400;10.808;2022-11-15T10:49:59;7.50;84.80
38514;DHT22;24282;48.400;10.808;2022-11-15T10:52:25;7.70;84.50
38514;DHT22;24282;48.400;10.808;2022-11-15T10:57:37;7.90;84.40
38514;DHT22;24282;48.400;10.808;2022-11-15T11:00:31;7.90;84.10
38514;DHT22;24282;48.400;10.808;2022-11-15T11:02:59;8.00;84.00
38514;DHT22;24282;48.400;10.808;2022-11-15T11:05:32;8.10;83.70
38514;DHT22;24282;48.400;10.808;2022-11-15T11:08:22;8.20;83.00
38514;DHT22;24282;48.400;10.808;2022-11-15T11:10:56;8.40;82.60
38514;DHT22;24282;48.400;10.808;2022-11-15T11:13:36;8.50;82.50
38514;DHT22;24282;48.400;10.808;2022-11-15T11:21:22;8.90;80.40
38514;DHT22;24282;48.400;10.808;2022-11-15T11:24:01;9.10;79.80
38514;DHT22;24282;48.400;10.808;2022-11-15T11:30:17;9.30;78.40
38514;DHT22;24282;48.400;10.808;2022-11-15T11:32:29;9.40;77.30
38514;DHT22;24282;48.400;10.808;2022-11-15T11:40:27;9.80;76.50
38514;DHT22;24282;48.400;10.808;2022-11-15T11:48:14;10.20;75.80
38514;DHT22;24282;48.400;10.808;2022-11-15T11:50:44;10.30;75.00
38514;DHT22;24282;48.400;10.808;2022-11-15T11:53:32;10.40;74.50
38514;DHT22;24282;48.400;10.808;2022-11-15T11:56:15;10.50;73.80
38514;DHT22;24282;48.400;10.808;2022-11-15T11:58:44;10.70;73.60
38514;DHT22;24282;48.400;10.808;2022-11-15T12:06:14;11.00;71.00
38514;DHT22;24282;48.400;10.808;2022-11-15T12:14:40;11.40;71.00
38514;DHT22;24282;48.400;10.808;2022-11-15T12:17:07;11.50;68.50
38514;DHT22;24282;48.400;10.808;2022-11-15T12:19:33;11.60;68.50
38514;DHT22;24282;48.400;10.808;2022-11-15T12:22:13;11.60;68.40
38514;DHT22;24282;48.400;10.808;2022-11-15T12:25:02;11.70;68.00
38514;DHT22;24282;48.400;10.808;2022-11-15T12:27:38;11.60;67.10
38514;DHT22;24282;48.400;10.808;2022-11-15T12:30:20;11.70;67.70
38514;DHT22;24282;48.400;10.808;2022-11-15T12:33:00;11.70;68.40
38514;DHT22;24282;48.400;10.808;2022-11-15T12:35:34;11.60;69.30
38514;DHT22;24282;48.400;10.808;2022-11-15T12:38:00;11.60;69.90
38514;DHT22;24282;48.400;10.808;2022-11-15T12:40:34;11.50;70.20
38514;DHT22;24282;48.400;10.808;2022-11-15T12:45:41;11.50;70.70
38514;DHT22;24282;48.400;10.808;2022-11-15T12:56:09;11.20;71.10
38514;DHT22;24282;48.400;10.808;2022-11-15T13:06:53;10.90;70.30
38514;DHT22;24282;48.400;10.808;2022-11-15T13:14:56;10.80;71.60
38514;DHT22;24282;48.400;10.808;2022-11-15T13:17:29;10.70;71.80
38514;DHT22;24282;48.400;10.808;2022-11-15T13:20:07;10.60;72.40
38514;DHT22;24282;48.400;10.808;2022-11-15T13:25:54;10.50;71.70
38514;DHT22;24282;48.400;10.808;2022-11-15T13:33:47;10.50;71.80
38514;DHT22;24282;48.400;10.808;2022-11-15T13:36:18;10.40;71.60
38514;DHT22;24282;48.400;10.808;2022-11-15T13:39:12;10.40;71.90
38514;DHT22;24282;48.400;10.808;2022-11-15T13:41:49;10.40;72.50
38514;DHT22;24282;48.400;10.808;2022-11-15T13:44:24;10.30;72.90
38514;DHT22;24282;48.400;10.808;2022-11-15T13:47:12;10.20;73.60
38514;DHT22;24282;48.400;10.808;2022-11-15T13:49:38;10.10;74.50
38514;DHT22;24282;48.400;10.808;2022-11-15T13:52:11;10.10;75.00
38514;DHT22;24282;48.400;10.808;2022-11-15T14:00:23;9.90;75.90
38514;DHT22;24282;48.400;10.808;2022-11-15T14:02:49;9.90;76.40
38514;DHT22;24282;48.400;10.808;2022-11-15T14:05:18;9.80;76.90
38514;DHT22;24282;48.400;10.808;2022-11-15T14:07:54;9.80;77.40
38514;DHT22;24282;48.400;10.808;2022-11-15T14:10:35;9.70;77.90
38514;DHT22;24282;48.400;10.808;2022-11-15T14:13:02;9.70;78.50
38514;DHT22;24282;48.400;10.808;2022-11-15T14:15:37;9.60;78.80
38514;DHT22;24282;48.400;10.808;2022-11-15T14:18:04;9.60;79.20
38514;DHT22;24282;48.400;10.808;2022-11-15T14:20:37;9.60;79.40
38514;DHT22;24282;48.400;10.808;2022-11-15T14:25:34;9.60;78.80
38514;DHT22;24282;48.400;10.808;2022-11-15T14:30:42;9.70;79.10
38514;DHT22;24282;48.400;10.808;2022-11-15T14:33:24;9.70;79.40
38514;DHT22;24282;48.400;10.808;2022-11-15T14:35:52;9.70;79.70
38514;DHT22;24282;48.400;10.808;2022-11-15T14:38:18;9.70;79.90
38514;DHT22;24282;48.400;10.808;2022-11-15T14:40:44;9.70;80.20
38514;DHT22;24282;48.400;10.808;2022-11-15T14:43:11;9.60;80.70
38514;DHT22;24282;48.400;10.808;2022-11-15T14:45:37;9.60;81.00
38514;DHT22;24282;48.400;10.808;2022-11-15T14:48:03;9.50;81.30
38514;DHT22;24282;48.400;10.808;2022-11-15T14:50:29;9.40;81.80
38514;DHT22;24282;48.400;10.808;2022-11-15T14:52:55;9.40;82.20
38514;DHT22;24282;48.400;10.808;2022-11-15T14:55:33;9.40;82.40
38514;DHT22;24282;48.400;10.808;2022-11-15T14:58:06;9.30;82.70
38514;DHT22;24282;48.400;10.808;2022-11-15T15:00:36;9.30;83.00
38514;DHT22;24282;48.400;10.808;2022-11-15T15:03:03;9.20;83.20
38514;DHT22;24282;48.400;10.808;2022-11-15T15:05:35;9.20;83.50
38514;DHT22;24282;48.400;10.808;2022-11-15T15:08:01;9.20;83.60
38514;DHT22;24282;48.400;10.808;2022-11-15T15:10:31;9.20;83.50
38514;DHT22;24282;48.400;10.808;2022-11-15T15:12:58;9.20;83.60
38514;DHT22;24282;48.400;10.808;2022-11-15T15:15:26;9.10;83.60
38514;DHT22;24282;48.400;10.808;2022-11-15T15:17:52;9.10;83.70
38514;DHT22;24282;48.400;10.808;2022-11-15T15:20:18;9.10;83.90
38514;DHT22;24282;48.400;10.808;2022-11-15T15:22:44;9.00;84.10
38514;DHT22;24282;48.400;10.808;2022-11-15T15:25:20;9.00;84.30
38514;DHT22;24282;48.400;10.808;2022-11-15T15:27:46;8.90;84.40
38514;DHT22;24282;48.400;10.808;2022-11-15T15:30:12;8.90;84.50
38514;DHT22;24282;48.400;10.808;2022-11-15T15:32:38;8.90;84.60
38514;DHT22;24282;48.400;10.808;2022-11-15T15:35:04;8.90;84.70
38514;DHT22;24282;48.400;10.808;2022-11-15T15:37:30;8.80;84.70
38514;DHT22;24282;48.400;10.808;2022-11-15T15:39:58;8.80;84.80
38514;DHT22;24282;48.400;10.808;2022-11-15T15:42:24;8.70;84.90
38514;DHT22;24282;48.400;10.808;2022-11-15T15:44:50;8.70;85.00
38514;DHT22;24282;48.400;10.808;2022-11-15T15:47:23;8.70;85.00
38514;DHT22;24282;48.400;10.808;2022-11-15T15:49:50;8.70;85.20
38514;DHT22;24282;48.400;10.808;2022-11-15T15:52:16;8.60;85.30
38514;DHT22;24282;48.400;10.808;2022-11-15T15:54:42;8.60;85.30
38514;DHT22;24282;48.400;10.808;2022-11-15T15:57:11;8.60;86.20
38514;DHT22;24282;48.400;10.808;2022-11-15T15:59:37;8.70;88.00
38514;DHT22;24282;48.400;10.808;2022-11-15T16:02:03;8.70;87.30
38514;DHT22;24282;48.400;10.808;2022-11-15T16:04:30;8.60;86.60
38514;DHT22;24282;48.400;10.808;2022-11-15T16:06:59;8.60;86.20
38514;DHT22;24282;48.400;10.808;2022-11-15T16:09:25;8.60;86.10
38514;DHT22;24282;48.400;10.808;2022-11-15T16:12:10;8.50;86.10
38514;DHT22;24282;48.400;10.808;2022-11-15T16:14:36;8.50;86.30
38514;DHT22;24282;48.400;10.808;2022-11-15T16:17:02;8.50;86.40
38514;DHT22;24282;48.400;10.808;2022-11-15T16:19:28;8.50;86.40
38514;DHT22;24282;48.400;10.808;2022-11-15T16:21:54;8.50;86.50
38514;DHT22;24282;48.400;10.808;2022-11-15T16:24:20;8.50;86.40
38514;DHT22;24282;48.400;10.808;2022-11-15T16:26:47;8.50;86.40
38514;DHT22;24282;48.400;10.808;2022-11-15T16:29:13;8.40;86.30
38514;DHT22;24282;48.400;10.808;2022-11-15T16:31:39;8.40;86.30
38514;DHT22;24282;48.400;10.808;2022-11-15T16:34:08;8.40;86.40
38514;DHT22;24282;48.400;10.808;2022-11-15T16:36:34;8.30;86.50
38514;DHT22;24282;48.400;10.808;2022-11-15T16:39:01;8.40;86.60
38514;DHT22;24282;48.400;10.808;2022-11-15T16:41:30;8.40;86.60
38514;DHT22;24282;48.400;10.808;2022-11-15T16:43:56;8.40;86.80
38514;DHT22;24282;48.400;10.808;2022-11-15T16:46:26;8.30;87.00
38514;DHT22;24282;48.400;10.808;2022-11-15T16:48:52;8.30;87.00
38514;DHT22;24282;48.400;10.808;2022-11-15T16:51:21;8.30;86.80
38514;DHT22;24282;48.400;10.808;2022-11-15T16:53:47;8.30;86.90
38514;DHT22;24282;48.400;10.808;2022-11-15T16:56:25;8.30;87.10
38514;DHT22;24282;48.400;10.808;2022-11-15T16:58:52;8.30;87.10
38514;DHT22;24282;48.400;10.808;2022-11-15T17:01:23;8.20;87.00
38514;DHT22;24282;48.400;10.808;2022-11-15T17:03:49;8.20;87.00
38514;DHT22;24282;48.400;10.808;2022-11-15T17:06:15;8.20;87.00
38514;DHT22;24282;48.400;10.808;2022-11-15T17:08:43;8.20;87.00
38514;DHT22;24282;48.400;10.808;2022-11-15T17:11:13;8.20;87.00
38514;DHT22;24282;48.400;10.808;2022-11-15T17:13:39;8.20;87.00
38514;DHT22;24282;48.400;10.808;2022-11-15T17:16:07;8.20;87.10
38514;DHT22;24282;48.400;10.808;2022-11-15T17:18:34;8.10;87.10
38514;DHT22;24282;48.400;10.808;2022-11-15T17:21:08;8.10;87.10
38514;DHT22;24282;48.400;10.808;2022-11-15T17:23:34;8.10;87.20
38514;DHT22;24282;48.400;10.808;2022-11-15T17:26:01;8.10;87.20
38514;DHT22;24282;48.400;10.808;2022-11-15T17:28:29;8.10;87.20
38514;DHT22;24282;48.400;10.808;2022-11-15T17:30:54;8.00;87.30
38514;DHT22;24282;48.400;10.808;2022-11-15T17:33:20;8.00;87.40
38514;DHT22;24282;48.400;10.808;2022-11-15T17:35:46;8.00;87.40
38514;DHT22;24282;48.400;10.808;2022-11-15T17:38:19;7.90;87.40
38514;DHT22;24282;48.400;10.808;2022-11-15T17:40:47;7.90;87.50
38514;DHT22;24282;48.400;10.808;2022-11-15T17:43:12;7.90;87.60
38514;DHT22;24282;48.400;10.808;2022-11-15T17:45:41;7.90;87.70
38514;DHT22;24282;48.400;10.808;2022-11-15T17:48:07;7.90;87.60
38514;DHT22;24282;48.400;10.808;2022-11-15T17:50:32;7.90;87.60
38514;DHT22;24282;48.400;10.808;2022-11-15T17:52:59;7.90;87.60
38514;DHT22;24282;48.400;10.808;2022-11-15T17:55:24;7.90;87.70
38514;DHT22;24282;48.400;10.808;2022-11-15T17:57:50;7.80;87.70
38514;DHT22;24282;48.400;10.808;2022-11-15T18:00:16;7.80;87.70
38514;DHT22;24282;48.400;10.808;2022-11-15T18:02:45;7.80;87.70
38514;DHT22;24282;48.400;10.808;2022-11-15T18:05:14;7.80;87.70
38514;DHT22;24282;48.400;10.808;2022-11-15T18:07:42;7.70;87.60
38514;DHT22;24282;48.400;10.808;2022-11-15T18:10:08;7.80;87.70
38514;DHT22;24282;48.400;10.808;2022-11-15T18:12:34;7.70;87.70
38514;DHT22;24282;48.400;10.808;2022-11-15T18:15:03;7.80;87.70
38514;DHT22;24282;48.400;10.808;2022-11-15T18:17:31;7.80;87.50
38514;DHT22;24282;48.400;10.808;2022-11-15T18:19:57;7.80;87.60
38514;DHT22;24282;48.400;10.808;2022-11-15T18:22:23;7.80;87.70
38514;DHT22;24282;48.400;10.808;2022-11-15T18:24:49;7.80;87.70
38514;DHT22;24282;48.400;10.808;2022-11-15T18:27:15;7.70;87.80
38514;DHT22;24282;48.400;10.808;2022-11-15T18:29:40;7.80;87.80
38514;DHT22;24282;48.400;10.808;2022-11-15T18:32:06;7.80;87.90
38514;DHT22;24282;48.400;10.808;2022-11-15T18:34:37;7.70;87.80
38514;DHT22;24282;48.400;10.808;2022-11-15T18:37:02;7.80;87.90
38514;DHT22;24282;48.400;10.808;2022-11-15T18:39:31;7.80;88.00
38514;DHT22;24282;48.400;10.808;2022-11-15T18:41:57;7.70;87.90
38514;DHT22;24282;48.400;10.808;2022-11-15T18:44:23;7.80;87.90
38514;DHT22;24282;48.400;10.808;2022-11-15T18:46:49;7.70;87.90
38514;DHT22;24282;48.400;10.808;2022-11-15T18:49:15;7.70;87.90
38514;DHT22;24282;48.400;10.808;2022-11-15T18:51:41;7.70;87.80